createdAt,value
2024-01-06T00:01:49.112Z,7.66
2024-01-06T00:04:16.041Z,7.53
2024-01-06T00:06:42.954Z,7.62
2024-01-06T00:09:09.776Z,7.62
2024-01-06T00:11:39.602Z,7.72
2024-01-06T00:14:06.425Z,7.86
2024-01-06T00:16:33.185Z,7.86
2024-01-06T00:19:00.093Z,7.87
2024-01-06T00:21:26.966Z,7.94
2024-01-06T00:23:53.746Z,7.85
2024-01-06T00:26:20.506Z,7.84
2024-01-06T00:28:50.399Z,7.74
2024-01-06T00:31:17.292Z,7.78
2024-01-06T00:33:47.201Z,7.93
2024-01-06T00:36:14.005Z,7.77
2024-01-06T00:38:40.802Z,7.58
2024-01-06T00:41:07.570Z,7.73
2024-01-06T00:43:34.446Z,7.68
2024-01-06T00:46:01.207Z,7.91
2024-01-06T00:48:28.105Z,7.90
2024-01-06T00:50:54.989Z,7.96
2024-01-06T00:53:24.833Z,8.02
2024-01-06T00:55:51.594Z,7.97
2024-01-06T00:58:18.379Z,7.69
2024-01-06T01:00:48.321Z,7.61
2024-01-06T01:03:17.255Z,7.55
2024-01-06T01:05:47.213Z,7.75
2024-01-06T01:08:14.085Z,7.93
2024-01-06T01:10:40.873Z,7.77
2024-01-06T01:13:07.711Z,7.89
2024-01-06T01:15:34.553Z,7.97
2024-01-06T01:18:01.555Z,8.10
2024-01-06T01:20:28.517Z,8.00
2024-01-06T01:22:55.286Z,8.24
2024-01-06T01:25:22.061Z,8.13
2024-01-06T01:27:48.902Z,7.89
2024-01-06T01:30:15.954Z,7.93
2024-01-06T01:32:46.062Z,7.81
2024-01-06T01:35:16.000Z,7.94
2024-01-06T01:37:45.815Z,7.96
2024-01-06T01:40:12.735Z,7.90
2024-01-06T01:42:39.527Z,7.96
2024-01-06T01:45:06.481Z,8.00
2024-01-06T01:47:33.362Z,7.99
2024-01-06T01:50:00.356Z,7.71
2024-01-06T01:52:27.259Z,7.60
2024-01-06T01:54:54.133Z,7.44
2024-01-06T01:57:21.003Z,7.37
2024-01-06T01:59:47.849Z,7.45
2024-01-06T02:02:17.718Z,7.66
2024-01-06T02:04:47.607Z,7.79
2024-01-06T02:07:14.407Z,7.79
2024-01-06T02:09:41.306Z,7.75
2024-01-06T02:12:11.191Z,7.77
2024-01-06T02:14:38.027Z,7.75
2024-01-06T02:17:07.816Z,7.55
2024-01-06T02:19:34.704Z,7.61
2024-01-06T02:22:01.689Z,7.64
2024-01-06T02:24:28.352Z,7.83
2024-01-06T02:26:54.962Z,7.70
2024-01-06T02:29:21.557Z,7.64
2024-01-06T02:31:48.225Z,7.42
2024-01-06T02:34:15.002Z,7.37
2024-01-06T02:36:41.720Z,7.30
2024-01-06T02:39:08.416Z,7.20
2024-01-06T02:41:35.098Z,7.40
2024-01-06T02:44:01.692Z,7.47
2024-01-06T02:46:28.299Z,7.38
2024-01-06T02:48:55.005Z,7.30
2024-01-06T02:51:21.812Z,7.53
2024-01-06T02:53:48.431Z,7.72
2024-01-06T02:56:15.078Z,7.71
2024-01-06T02:58:41.678Z,7.73
2024-01-06T03:01:08.525Z,7.66
2024-01-06T03:03:35.314Z,7.76
2024-01-06T03:06:02.016Z,7.54
2024-01-06T03:08:28.664Z,7.61
2024-01-06T03:10:55.310Z,7.78
2024-01-06T03:13:21.951Z,7.66
2024-01-06T03:15:48.642Z,7.51
2024-01-06T03:18:15.583Z,7.44
2024-01-06T03:20:42.337Z,7.49
2024-01-06T03:23:09.138Z,7.62
2024-01-06T03:25:35.930Z,7.68
2024-01-06T03:28:02.675Z,7.75
2024-01-06T03:30:29.525Z,7.55
2024-01-06T03:32:56.494Z,7.69
2024-01-06T03:35:23.350Z,7.71
2024-01-06T03:37:50.220Z,7.79
2024-01-06T03:40:16.874Z,7.81
2024-01-06T03:42:43.545Z,7.86
2024-01-06T03:45:10.187Z,7.63
2024-01-06T03:47:36.943Z,7.90
2024-01-06T03:50:03.610Z,7.85
2024-01-06T03:52:30.250Z,7.93
2024-01-06T03:54:56.941Z,7.97
2024-01-06T03:57:23.755Z,7.96
2024-01-06T03:59:53.118Z,7.55
2024-01-06T04:02:19.743Z,7.27
2024-01-06T04:04:46.444Z,7.44
2024-01-06T04:07:13.101Z,7.28
2024-01-06T04:09:39.745Z,7.33
2024-01-06T04:12:06.352Z,7.56
2024-01-06T04:14:32.946Z,7.74
2024-01-06T04:16:59.574Z,7.60
2024-01-06T04:19:26.253Z,7.69
2024-01-06T04:21:52.989Z,7.65
2024-01-06T04:24:19.699Z,7.68
2024-01-06T04:26:46.467Z,7.29
2024-01-06T04:29:13.160Z,7.54
2024-01-06T04:31:39.873Z,7.70
2024-01-06T04:34:06.763Z,7.35
2024-01-06T04:36:33.533Z,7.60
2024-01-06T04:39:00.365Z,7.73
2024-01-06T04:41:27.155Z,7.82
2024-01-06T04:43:53.966Z,7.67
2024-01-06T04:46:20.762Z,7.61
2024-01-06T04:48:47.606Z,7.65
2024-01-06T04:51:17.500Z,7.49
2024-01-06T04:53:44.300Z,7.39
2024-01-06T04:56:11.065Z,7.44
2024-01-06T04:58:40.904Z,7.47
2024-01-06T05:01:07.797Z,7.26
2024-01-06T05:03:34.746Z,7.35
2024-01-06T05:06:04.651Z,7.46
2024-01-06T05:08:31.412Z,7.36
2024-01-06T05:10:58.252Z,7.27
2024-01-06T05:13:25.043Z,7.07
2024-01-06T05:15:55.097Z,7.03
2024-01-06T05:18:25.176Z,7.18
2024-01-06T05:20:52.008Z,7.32
2024-01-06T05:23:18.763Z,7.42
2024-01-06T05:25:45.549Z,7.46
2024-01-06T05:28:12.325Z,7.41
2024-01-06T05:30:39.269Z,7.34
2024-01-06T05:33:06.271Z,7.37
2024-01-06T05:35:34.453Z,7.34
2024-01-06T05:38:01.925Z,7.18
2024-01-06T05:40:31.717Z,7.13
2024-01-06T05:42:58.592Z,7.09
2024-01-06T05:45:27.518Z,7.06
2024-01-06T05:47:55.932Z,7.21
2024-01-06T05:50:22.702Z,7.06
2024-01-06T05:52:49.533Z,7.09
2024-01-06T05:55:16.319Z,7.10
2024-01-06T05:57:46.113Z,7.16
2024-01-06T06:00:15.891Z,7.09
2024-01-06T06:02:42.703Z,7.02
2024-01-06T06:05:12.514Z,6.89
2024-01-06T06:07:42.364Z,6.74
2024-01-06T06:10:12.276Z,6.65
2024-01-06T06:12:39.159Z,6.74
2024-01-06T06:15:05.971Z,6.89
2024-01-06T06:17:32.869Z,6.90
2024-01-06T06:20:02.695Z,6.88
2024-01-06T06:22:32.554Z,6.86
2024-01-06T06:24:59.326Z,6.81
2024-01-06T06:27:29.115Z,6.52
2024-01-06T06:29:55.938Z,6.26
2024-01-06T06:32:22.782Z,5.90
2024-01-06T06:34:49.709Z,6.12
2024-01-06T06:37:16.527Z,6.11
2024-01-06T06:39:43.374Z,6.08
2024-01-06T06:42:13.345Z,6.11
2024-01-06T06:44:40.174Z,5.92
2024-01-06T06:47:06.947Z,5.76
2024-01-06T06:49:33.806Z,5.68
2024-01-06T06:52:00.720Z,5.77
2024-01-06T06:54:27.530Z,5.76
2024-01-06T06:56:54.333Z,5.53
2024-01-06T06:59:21.210Z,5.73
2024-01-06T07:01:48.012Z,5.87
2024-01-06T07:04:17.954Z,6.16
2024-01-06T07:06:47.768Z,6.16
2024-01-06T07:09:19.144Z,5.92
2024-01-06T07:11:47.016Z,6.05
2024-01-06T07:14:13.779Z,5.89
2024-01-06T07:16:40.554Z,5.94
2024-01-06T07:19:07.507Z,5.80
2024-01-06T07:21:34.353Z,5.87
2024-01-06T07:24:04.176Z,6.05
2024-01-06T07:26:33.972Z,6.13
2024-01-06T07:29:03.807Z,6.12
2024-01-06T07:31:30.660Z,6.12
2024-01-06T07:33:57.564Z,6.16
2024-01-06T07:36:27.467Z,6.14
2024-01-06T07:38:54.321Z,6.12
2024-01-06T07:41:21.074Z,5.86
2024-01-06T07:43:47.881Z,5.61
2024-01-06T07:46:15.668Z,5.57
2024-01-06T07:48:46.570Z,5.76
2024-01-06T07:51:16.576Z,5.49
2024-01-06T07:53:43.345Z,5.88
2024-01-06T07:56:11.328Z,5.84
2024-01-06T07:58:38.092Z,5.93
2024-01-06T08:01:07.962Z,5.99
2024-01-06T08:03:37.826Z,5.99
2024-01-06T08:06:07.824Z,6.11
2024-01-06T08:08:37.668Z,5.96
2024-01-06T08:11:04.500Z,6.01
2024-01-06T08:13:34.264Z,6.11
2024-01-06T08:16:01.068Z,6.10
2024-01-06T08:18:28.035Z,6.27
2024-01-06T08:20:57.938Z,6.43
2024-01-06T08:23:24.805Z,6.54
2024-01-06T08:25:51.638Z,6.87
2024-01-06T08:28:18.399Z,6.86
2024-01-06T08:30:48.361Z,7.11
2024-01-06T08:33:15.433Z,7.39
2024-01-06T08:35:45.341Z,7.54
2024-01-06T08:38:12.174Z,7.49
2024-01-06T08:40:42.018Z,7.51
2024-01-06T08:43:08.879Z,7.53
2024-01-06T08:45:35.885Z,7.35
2024-01-06T08:48:02.857Z,7.40
2024-01-06T08:50:29.670Z,7.49
2024-01-06T08:52:56.510Z,7.20
2024-01-06T08:55:23.291Z,7.30
2024-01-06T08:57:50.103Z,7.63
2024-01-06T09:00:16.961Z,7.69
2024-01-06T09:02:46.954Z,7.60
2024-01-06T09:05:32.168Z,7.58
2024-01-06T09:07:58.928Z,8.15
2024-01-06T09:10:25.682Z,8.27
2024-01-06T09:12:52.525Z,8.13
2024-01-06T09:15:19.391Z,8.11
2024-01-06T09:17:46.279Z,7.98
2024-01-06T09:20:13.074Z,8.08
2024-01-06T09:22:39.866Z,8.42
2024-01-06T09:25:06.617Z,8.27
2024-01-06T09:27:33.470Z,8.26
2024-01-06T09:30:00.332Z,8.30
2024-01-06T09:32:27.168Z,8.59
2024-01-06T09:34:54.221Z,8.39
2024-01-06T09:37:21.076Z,8.75
2024-01-06T09:39:47.935Z,8.92
2024-01-06T09:42:14.848Z,9.05
2024-01-06T09:44:41.734Z,8.78
2024-01-06T09:47:08.581Z,8.79
2024-01-06T09:49:35.362Z,8.69
2024-01-06T09:52:02.887Z,9.01
2024-01-06T09:54:29.799Z,8.75
2024-01-06T09:56:56.558Z,8.84
2024-01-06T09:59:23.336Z,9.24
2024-01-06T10:01:50.111Z,9.33
2024-01-06T10:04:20.512Z,9.66
2024-01-06T10:06:49.363Z,9.59
2024-01-06T10:09:16.203Z,9.61
2024-01-06T10:11:42.996Z,10.04
2024-01-06T10:14:09.802Z,10.22
2024-01-06T10:16:36.612Z,10.39
2024-01-06T10:19:03.473Z,10.57
2024-01-06T10:21:30.276Z,10.61
2024-01-06T10:23:57.028Z,10.99
2024-01-06T10:26:23.840Z,11.49
2024-01-06T10:28:50.671Z,10.96
2024-01-06T10:31:17.526Z,10.67
2024-01-06T10:33:44.548Z,10.15
2024-01-06T10:36:11.493Z,10.46
2024-01-06T10:38:38.280Z,10.39
2024-01-06T10:41:05.064Z,10.50
2024-01-06T10:43:31.865Z,10.10
2024-01-06T10:45:58.839Z,10.00
2024-01-06T10:48:25.825Z,10.37
2024-01-06T10:50:52.725Z,10.33
2024-01-06T10:53:19.574Z,9.66
2024-01-06T10:55:46.390Z,10.28
2024-01-06T10:58:13.260Z,9.61
2024-01-06T11:00:40.293Z,9.77
2024-01-06T11:03:07.508Z,10.07
2024-01-06T11:05:34.513Z,10.02
2024-01-06T11:08:01.412Z,10.36
2024-01-06T11:10:28.022Z,10.39
2024-01-06T11:12:54.772Z,10.64
2024-01-06T11:15:21.418Z,9.78
2024-01-06T11:17:48.275Z,9.81
2024-01-06T11:20:15.084Z,9.95
2024-01-06T11:22:41.768Z,10.24
2024-01-06T11:25:10.853Z,9.94
2024-01-06T11:30:28.309Z,10.01
2024-01-06T11:32:55.215Z,9.35
2024-01-06T11:35:21.976Z,9.55
2024-01-06T11:37:49.069Z,9.35
2024-01-06T11:40:15.679Z,9.05
2024-01-06T11:42:43.563Z,8.73
2024-01-06T11:45:10.288Z,9.19
2024-01-06T11:47:37.123Z,8.99
2024-01-06T11:50:03.785Z,8.42
2024-01-06T11:52:30.470Z,8.55
2024-01-06T11:54:57.273Z,8.64
2024-01-06T11:57:23.945Z,8.77
2024-01-06T11:59:50.706Z,9.66
2024-01-06T12:02:17.388Z,9.73
2024-01-06T12:04:44.043Z,9.64
2024-01-06T12:07:10.684Z,9.18
2024-01-06T12:09:37.613Z,9.36
2024-01-06T12:12:07.514Z,9.61
2024-01-06T12:14:34.382Z,9.45
2024-01-06T12:17:01.000Z,9.74
2024-01-06T12:19:27.726Z,9.82
2024-01-06T12:21:54.471Z,10.08
2024-01-06T12:24:21.108Z,9.98
2024-01-06T12:26:47.773Z,10.27
2024-01-06T12:29:15.222Z,9.83
2024-01-06T12:31:42.058Z,10.38
2024-01-06T12:34:08.906Z,10.40
2024-01-06T12:36:35.638Z,10.25
2024-01-06T12:39:02.310Z,10.52
2024-01-06T12:41:28.947Z,10.21
2024-01-06T12:43:55.588Z,10.11
2024-01-06T12:46:22.176Z,10.09
2024-01-06T12:48:48.927Z,9.60
2024-01-06T12:51:15.784Z,9.45
2024-01-06T12:53:42.426Z,9.56
2024-01-06T12:56:09.014Z,9.72
2024-01-06T12:58:35.653Z,9.98
2024-01-06T13:01:02.485Z,9.46
2024-01-06T13:03:29.290Z,9.76
2024-01-06T13:05:56.039Z,9.76
2024-01-06T13:08:22.655Z,9.29
2024-01-06T13:10:49.273Z,9.40
2024-01-06T13:13:15.942Z,9.26
2024-01-06T13:15:42.885Z,9.20
2024-01-06T13:18:09.825Z,9.29
2024-01-06T13:20:36.700Z,9.42
2024-01-06T13:23:03.445Z,9.70
2024-01-06T13:25:30.267Z,9.78
2024-01-06T13:27:57.138Z,9.60
2024-01-06T13:30:24.031Z,9.49
2024-01-06T13:32:50.915Z,9.41
2024-01-06T13:35:17.833Z,9.85
2024-01-06T13:37:44.672Z,10.05
2024-01-06T13:40:11.504Z,9.91
2024-01-06T13:42:38.331Z,9.05
2024-01-06T13:45:05.181Z,9.29
2024-01-06T13:47:31.956Z,8.92
2024-01-06T13:49:59.056Z,8.63
2024-01-06T13:52:25.981Z,8.61
2024-01-06T13:54:52.859Z,8.32
2024-01-06T13:57:19.695Z,8.64
2024-01-06T13:59:46.520Z,8.46
2024-01-06T14:02:13.305Z,8.70
2024-01-06T14:04:40.219Z,8.74
2024-01-06T14:07:07.064Z,8.71
2024-01-06T14:09:33.949Z,9.11
2024-01-06T14:12:00.797Z,8.82
2024-01-06T14:14:27.584Z,8.66
2024-01-06T14:16:54.377Z,8.16
2024-01-06T14:19:21.185Z,6.63
2024-01-06T14:21:48.037Z,6.71
2024-01-06T14:24:14.842Z,6.61
2024-01-06T14:26:41.729Z,6.38
2024-01-06T14:29:08.551Z,6.89
2024-01-06T14:31:35.498Z,6.72
2024-01-06T14:34:02.464Z,6.89
2024-01-06T14:36:29.461Z,6.64
2024-01-06T14:38:56.249Z,6.54
2024-01-06T14:41:23.102Z,6.82
2024-01-06T14:43:49.882Z,6.89
2024-01-06T14:46:16.703Z,6.85
2024-01-06T14:48:43.586Z,6.65
2024-01-06T14:51:13.499Z,6.92
2024-01-06T14:53:40.281Z,6.89
2024-01-06T14:56:07.109Z,7.26
2024-01-06T14:58:33.930Z,6.83
2024-01-06T15:01:00.891Z,7.28
2024-01-06T15:03:27.846Z,7.25
2024-01-06T15:05:54.717Z,6.93
2024-01-06T15:08:21.539Z,7.31
2024-01-06T15:10:48.385Z,7.46
2024-01-06T15:13:15.150Z,7.47
2024-01-06T15:15:41.979Z,7.47
2024-01-06T15:18:08.899Z,7.64
2024-01-06T15:20:35.748Z,7.99
2024-01-06T15:23:02.356Z,7.90
2024-01-06T15:25:28.975Z,8.06
2024-01-06T15:27:55.626Z,8.17
2024-01-06T15:30:22.329Z,7.82
2024-01-06T15:32:49.081Z,7.81
2024-01-06T15:35:15.733Z,7.67
2024-01-06T15:37:42.416Z,7.51
2024-01-06T15:40:09.174Z,7.54
2024-01-06T15:42:35.893Z,7.90
2024-01-06T15:45:02.641Z,7.78
2024-01-06T15:47:29.288Z,7.86
2024-01-06T15:49:56.057Z,7.85
2024-01-06T15:52:23.092Z,7.38
2024-01-06T15:54:49.860Z,7.47
2024-01-06T15:57:16.563Z,7.42
2024-01-06T15:59:43.269Z,7.54
2024-01-06T16:02:09.917Z,7.30
2024-01-06T16:04:36.627Z,6.96
2024-01-06T16:07:03.304Z,7.29
2024-01-06T16:09:30.054Z,7.12
2024-01-06T16:11:56.706Z,7.08
2024-01-06T16:14:23.277Z,7.18
2024-01-06T16:16:49.878Z,6.93
2024-01-06T16:19:16.663Z,7.15
2024-01-06T16:21:43.617Z,7.18
2024-01-06T16:24:10.443Z,7.05
2024-01-06T16:26:37.235Z,7.19
2024-01-06T16:29:04.061Z,7.43
2024-01-06T16:31:31.059Z,7.21
2024-01-06T16:33:57.935Z,7.32
2024-01-06T16:36:24.861Z,7.15
2024-01-06T16:38:51.743Z,7.16
2024-01-06T16:41:20.625Z,7.32
2024-01-06T16:43:47.597Z,7.27
2024-01-06T16:46:45.144Z,7.37
2024-01-06T16:49:14.788Z,7.33
2024-01-06T16:51:41.751Z,7.45
2024-01-06T16:54:08.473Z,7.20
2024-01-06T16:56:35.200Z,7.17
2024-01-06T16:59:01.886Z,7.17
2024-01-06T17:01:28.758Z,7.35
2024-01-06T17:03:55.917Z,7.23
2024-01-06T17:06:22.564Z,6.97
2024-01-06T17:08:49.255Z,6.93
2024-01-06T17:11:15.939Z,6.92
2024-01-06T17:13:42.579Z,7.07
2024-01-06T17:16:09.255Z,6.99
2024-01-06T17:18:36.087Z,7.18
2024-01-06T17:21:02.807Z,6.74
2024-01-06T17:23:29.443Z,6.98
2024-01-06T17:25:56.076Z,7.00
2024-01-06T17:28:22.845Z,6.55
2024-01-06T17:30:49.536Z,6.22
2024-01-06T17:33:16.336Z,6.55
2024-01-06T17:35:42.959Z,6.65
2024-01-06T17:38:09.723Z,6.56
2024-01-06T17:40:36.296Z,6.63
2024-01-06T17:43:03.061Z,6.51
2024-01-06T17:45:29.968Z,6.53
2024-01-06T17:47:56.844Z,6.44
2024-01-06T17:50:23.672Z,6.56
2024-01-06T17:52:53.482Z,6.83
2024-01-06T17:55:20.225Z,7.04
2024-01-06T17:57:47.040Z,7.00
2024-01-06T18:00:13.883Z,6.58
2024-01-06T18:02:40.642Z,6.87
2024-01-06T18:05:07.918Z,6.62
2024-01-06T18:07:34.855Z,6.64
2024-01-06T18:10:01.874Z,6.47
2024-01-06T18:12:28.719Z,6.52
2024-01-06T18:14:55.366Z,6.80
2024-01-06T18:17:21.916Z,6.67
2024-01-06T18:19:50.586Z,6.64
2024-01-06T18:22:17.225Z,6.80
2024-01-06T18:24:43.930Z,6.71
2024-01-06T18:27:10.589Z,6.46
2024-01-06T18:29:38.816Z,6.42
2024-01-06T18:32:05.525Z,6.40
2024-01-06T18:34:32.577Z,6.64
2024-01-06T18:36:59.558Z,6.70
2024-01-06T18:39:26.330Z,6.49
2024-01-06T18:41:53.028Z,6.46
2024-01-06T18:44:19.709Z,6.61
2024-01-06T18:46:47.887Z,6.82
2024-01-06T18:49:14.579Z,6.75
2024-01-06T18:51:41.220Z,6.83
2024-01-06T18:54:07.905Z,6.70
2024-01-06T18:56:34.492Z,6.92
2024-01-06T18:59:01.258Z,6.75
2024-01-06T19:01:30.393Z,6.96
2024-01-06T19:03:57.136Z,6.98
2024-01-06T19:06:23.860Z,6.97
2024-01-06T19:08:50.527Z,6.79
2024-01-06T19:11:17.305Z,6.85
2024-01-06T19:13:44.105Z,7.00
2024-01-06T19:16:10.919Z,6.84
2024-01-06T19:18:37.785Z,6.67
2024-01-06T19:21:04.707Z,6.75
2024-01-06T19:23:31.498Z,6.55
2024-01-06T19:25:58.277Z,6.14
2024-01-06T19:28:25.020Z,6.21
2024-01-06T19:30:51.934Z,6.32
2024-01-06T19:33:18.899Z,6.31
2024-01-06T19:35:45.740Z,6.14
2024-01-06T19:38:12.513Z,6.34
2024-01-06T19:40:39.308Z,6.16
2024-01-06T19:43:06.147Z,5.65
2024-01-06T19:45:33.015Z,5.59
2024-01-06T19:47:59.893Z,5.76
2024-01-06T19:50:29.767Z,5.40
2024-01-06T19:52:56.544Z,5.47
2024-01-06T19:55:23.336Z,5.33
2024-01-06T19:57:50.123Z,5.81
2024-01-06T20:00:16.974Z,6.13
2024-01-06T20:02:43.725Z,5.98
2024-01-06T20:05:10.474Z,5.53
2024-01-06T20:07:37.304Z,5.65
2024-01-06T20:10:04.263Z,5.65
2024-01-06T20:12:31.089Z,5.85
2024-01-06T20:14:57.939Z,5.78
2024-01-06T20:17:24.734Z,5.85
2024-01-06T20:19:51.572Z,5.96
2024-01-06T20:22:18.397Z,6.17
2024-01-06T20:24:45.284Z,6.15
2024-01-06T20:27:12.134Z,6.06
2024-01-06T20:29:41.904Z,6.13
2024-01-06T20:32:08.889Z,6.01
2024-01-06T20:34:36.075Z,5.95
2024-01-06T20:37:02.959Z,5.98
2024-01-06T20:39:29.833Z,5.58
2024-01-06T20:41:56.694Z,5.52
2024-01-06T20:44:23.591Z,5.65
2024-01-06T20:46:50.482Z,5.57
2024-01-06T20:49:17.300Z,5.61
2024-01-06T20:51:44.266Z,5.56
2024-01-06T20:54:11.074Z,5.42
2024-01-06T20:56:37.982Z,5.38
2024-01-06T20:59:04.790Z,5.60
2024-01-06T21:01:31.729Z,5.88
2024-01-06T21:03:58.751Z,6.12
2024-01-06T21:06:27.297Z,6.27
2024-01-06T21:08:54.171Z,6.22
2024-01-06T21:11:21.051Z,6.43
2024-01-06T21:13:49.998Z,6.37
2024-01-06T21:16:16.831Z,6.33
2024-01-06T21:18:43.593Z,6.07
2024-01-06T21:21:10.420Z,6.10
2024-01-06T21:23:44.909Z,6.32
2024-01-06T21:26:27.403Z,6.30
2024-01-06T21:28:54.272Z,6.38
2024-01-06T21:31:21.148Z,6.49
2024-01-06T21:33:48.038Z,6.41
2024-01-06T21:36:15.010Z,6.54
2024-01-06T21:38:41.729Z,6.55
2024-01-06T21:41:08.388Z,6.35
2024-01-06T21:43:35.021Z,6.36
2024-01-06T21:46:02.110Z,6.62
2024-01-06T21:48:28.910Z,6.50
2024-01-06T21:50:56.001Z,6.66
2024-01-06T21:53:23.088Z,6.74
2024-01-06T21:55:49.804Z,6.30
2024-01-06T21:58:16.449Z,6.01
2024-01-06T22:00:47.422Z,6.00
2024-01-06T22:03:17.356Z,6.24
2024-01-06T22:08:34.918Z,5.88
2024-01-06T22:11:05.044Z,5.87
2024-01-06T22:13:34.417Z,5.64
2024-01-06T22:16:04.549Z,5.58
2024-01-06T22:18:31.650Z,5.79
2024-01-06T22:20:58.466Z,5.94
2024-01-06T22:23:28.382Z,5.70
2024-01-06T22:25:55.009Z,5.65
2024-01-06T22:28:21.955Z,5.77
2024-01-06T22:30:48.855Z,5.82
2024-01-06T22:33:18.353Z,5.62
2024-01-06T22:35:45.252Z,5.74
2024-01-06T22:38:11.924Z,5.98
2024-01-06T22:40:39.061Z,6.01
2024-01-06T22:43:05.806Z,6.11
2024-01-06T22:45:32.713Z,6.15
2024-01-06T22:47:59.532Z,6.42
2024-01-06T22:50:26.183Z,6.42
2024-01-06T22:52:52.788Z,6.19
2024-01-06T22:55:19.365Z,6.27
2024-01-06T22:57:46.095Z,6.18
2024-01-06T23:00:12.900Z,6.00
2024-01-06T23:02:39.516Z,5.76
2024-01-06T23:05:06.109Z,5.96
2024-01-06T23:07:32.821Z,6.23
2024-01-06T23:09:59.483Z,6.40
2024-01-06T23:12:26.123Z,6.16
2024-01-06T23:14:52.770Z,5.99
2024-01-06T23:17:19.402Z,6.03
2024-01-06T23:19:46.642Z,5.78
2024-01-06T23:22:13.626Z,5.75
2024-01-06T23:24:40.558Z,5.68
2024-01-06T23:27:07.355Z,5.84
2024-01-06T23:29:37.526Z,5.44
2024-01-06T23:32:05.222Z,5.63
2024-01-06T23:34:38.153Z,5.51
2024-01-06T23:37:09.068Z,5.87
2024-01-06T23:39:35.725Z,5.67
2024-01-06T23:42:02.360Z,5.68
2024-01-06T23:44:29.063Z,5.72
2024-01-06T23:46:55.660Z,5.54
2024-01-06T23:49:22.513Z,5.54
2024-01-06T23:51:49.281Z,5.33
2024-01-06T23:54:15.928Z,4.97
2024-01-06T23:56:42.493Z,4.89
2024-01-06T23:59:09.146Z,4.44
